VKG12RZ ESSA-GVAC
Flight info
| Callsign | VKG12RZ |
|---|---|
| Flight time | N/A |
| Altitude | 36000 |
| Route | ESSA/01L PETEV N872 ELPAX DCT PELOX DCT ROKAM DCT ALS Z703 KESUR DCT PARYD DCT SISGA/N0473F350 DCT KOVIN DCT NIDUV DCT KIHVI UN872 DITAL/N0469F370 UN872 ERIGA DCT FUJTI DCT BAKUP DCT BATAX DCT ABRAT DCT GAIOS DCT BAROK UN873 SAMAR DCT GDV DCT BIPET/N0480F380 N857 GUNET UW11 PINPO PINPO1F |
| Aircraft | A346/H-SDE2E3FGHIJ3J4J5M1RWXY/LB1D1 |
Departure
| Time | N/A |
|---|---|
| Airport | Stockholm-Arlanda Airport (ESSA) |
Arrival
| Time | 2026-04-23 21:30 |
|---|---|
| Airport | Amílcar Cabral International Airport (GVAC) |
| Time | Latitude | Longitude | Altitude | Speed | Heading |
|---|---|---|---|---|---|
| 2026-04-23 19:23 | 28.81338 | -15.16998 | 37108 ft | 460 kts | 205° |
| 2026-04-23 19:24 | 28.72169 | -15.20240 | 37108 ft | 460 kts | 206° |
| 2026-04-23 19:24 | 28.63006 | -15.23477 | 37103 ft | 459 kts | 205° |
| 2026-04-23 19:25 | 28.50839 | -15.27760 | 37104 ft | 459 kts | 205° |
| 2026-04-23 19:26 | 28.41671 | -15.30981 | 37102 ft | 459 kts | 205° |
| 2026-04-23 19:27 | 28.26399 | -15.36337 | 37097 ft | 458 kts | 205° |
| 2026-04-23 19:28 | 28.14208 | -15.40598 | 37096 ft | 458 kts | 205° |
| 2026-04-23 19:29 | 28.05091 | -15.43730 | 37080 ft | 459 kts | 203° |
| 2026-04-23 19:30 | 27.95825 | -15.46582 | 37093 ft | 460 kts | 202° |
| 2026-04-23 19:31 | 27.86567 | -15.49434 | 37094 ft | 460 kts | 203° |
| 2026-04-23 19:31 | 27.80383 | -15.51343 | 37089 ft | 460 kts | 203° |
| 2026-04-23 19:32 | 27.74252 | -15.53238 | 37074 ft | 459 kts | 202° |
| 2026-04-23 19:32 | 27.68084 | -15.55142 | 37083 ft | 459 kts | 202° |
| 2026-04-23 19:33 | 27.61922 | -15.57042 | 37083 ft | 459 kts | 202° |
| 2026-04-23 19:33 | 27.52670 | -15.59891 | 37088 ft | 459 kts | 202° |
| 2026-04-23 19:34 | 27.46504 | -15.61787 | 37058 ft | 459 kts | 202° |
| 2026-04-23 19:35 | 27.37319 | -15.64608 | 37086 ft | 458 kts | 202° |
| 2026-04-23 19:35 | 27.31152 | -15.66500 | 37085 ft | 459 kts | 202° |
| 2026-04-23 19:36 | 27.24960 | -15.68395 | 37093 ft | 459 kts | 202° |
| 2026-04-23 19:36 | 27.18790 | -15.70282 | 37091 ft | 459 kts | 202° |
| 2026-04-23 19:37 | 27.12630 | -15.72164 | 37082 ft | 458 kts | 202° |
| 2026-04-23 19:37 | 27.06480 | -15.74041 | 37089 ft | 457 kts | 202° |
| 2026-04-23 19:38 | 27.00343 | -15.75912 | 37093 ft | 457 kts | 202° |
| 2026-04-23 19:38 | 26.94244 | -15.77769 | 37094 ft | 457 kts | 202° |
| 2026-04-23 19:39 | 26.88103 | -15.79637 | 37095 ft | 457 kts | 202° |
| 2026-04-23 19:39 | 26.81957 | -15.81504 | 37094 ft | 457 kts | 202° |
| 2026-04-23 19:40 | 26.75817 | -15.83368 | 37098 ft | 457 kts | 202° |
| 2026-04-23 19:40 | 26.69667 | -15.85232 | 37097 ft | 457 kts | 202° |
| 2026-04-23 19:41 | 26.63519 | -15.87094 | 37090 ft | 457 kts | 202° |
| 2026-04-23 19:41 | 26.57372 | -15.88953 | 37090 ft | 457 kts | 202° |
| 2026-04-23 19:42 | 26.51243 | -15.90805 | 37088 ft | 456 kts | 202° |
| 2026-04-23 19:42 | 26.45159 | -15.92640 | 37093 ft | 455 kts | 202° |
| 2026-04-23 19:43 | 26.39035 | -15.94487 | 37099 ft | 455 kts | 202° |
| 2026-04-23 19:43 | 26.32907 | -15.96332 | 37094 ft | 456 kts | 202° |
| 2026-04-23 19:44 | 26.26776 | -15.98177 | 37088 ft | 456 kts | 202° |
| 2026-04-23 19:44 | 26.20666 | -16.00012 | 37080 ft | 454 kts | 202° |
| 2026-04-23 19:45 | 26.14593 | -16.01836 | 37086 ft | 455 kts | 202° |
| 2026-04-23 19:45 | 26.08467 | -16.03673 | 37088 ft | 455 kts | 202° |
| 2026-04-23 19:46 | 26.02352 | -16.05504 | 37094 ft | 455 kts | 202° |
| 2026-04-23 19:46 | 25.96225 | -16.07337 | 37092 ft | 455 kts | 202° |
| 2026-04-23 19:47 | 25.91147 | -16.08853 | 37089 ft | 454 kts | 202° |
| 2026-04-23 19:47 | 25.84065 | -16.10968 | 37080 ft | 453 kts | 202° |
| 2026-04-23 19:48 | 25.77954 | -16.12791 | 37084 ft | 453 kts | 202° |
| 2026-04-23 19:48 | 25.71863 | -16.14606 | 37089 ft | 454 kts | 202° |
| 2026-04-23 19:49 | 25.65762 | -16.16422 | 37089 ft | 454 kts | 202° |
| 2026-04-23 19:49 | 25.59664 | -16.18233 | 37085 ft | 453 kts | 202° |
| 2026-04-23 19:50 | 25.53574 | -16.20042 | 37089 ft | 452 kts | 202° |
| 2026-04-23 19:50 | 25.47492 | -16.21846 | 37091 ft | 452 kts | 202° |
| 2026-04-23 19:51 | 25.41412 | -16.23649 | 37092 ft | 452 kts | 202° |
| 2026-04-23 19:51 | 25.35324 | -16.25451 | 37093 ft | 452 kts | 202° |
| 2026-04-23 19:52 | 25.29283 | -16.27236 | 37078 ft | 452 kts | 202° |
| 2026-04-23 19:52 | 25.23199 | -16.29034 | 37089 ft | 452 kts | 202° |
| 2026-04-23 19:53 | 25.17123 | -16.30827 | 37092 ft | 452 kts | 202° |
| 2026-04-23 19:53 | 25.11042 | -16.32620 | 37092 ft | 452 kts | 202° |
| 2026-04-23 19:54 | 25.04995 | -16.34514 | 37091 ft | 449 kts | 205° |
| 2026-04-23 19:54 | 24.99198 | -16.36966 | 37081 ft | 444 kts | 211° |
| 2026-04-23 19:55 | 24.93714 | -16.40007 | 37089 ft | 439 kts | 216° |
| 2026-04-23 19:55 | 24.88492 | -16.43403 | 37093 ft | 438 kts | 217° |
| 2026-04-23 19:56 | 24.83237 | -16.46831 | 37086 ft | 438 kts | 217° |
| 2026-04-23 19:56 | 24.77981 | -16.50257 | 37088 ft | 439 kts | 217° |
| 2026-04-23 19:57 | 24.72733 | -16.53677 | 37091 ft | 439 kts | 217° |
| 2026-04-23 19:57 | 24.68359 | -16.56522 | 37070 ft | 437 kts | 217° |
| 2026-04-23 19:58 | 24.62242 | -16.60500 | 37083 ft | 436 kts | 217° |
| 2026-04-23 19:58 | 24.57010 | -16.63901 | 37086 ft | 436 kts | 217° |
| 2026-04-23 19:59 | 24.51777 | -16.67299 | 37088 ft | 436 kts | 217° |
| 2026-04-23 19:59 | 24.46546 | -16.70691 | 37091 ft | 437 kts | 217° |
| 2026-04-23 20:00 | 24.41302 | -16.74089 | 37088 ft | 438 kts | 217° |
| 2026-04-23 20:00 | 24.36086 | -16.77463 | 37068 ft | 437 kts | 217° |
| 2026-04-23 20:01 | 24.30857 | -16.80843 | 37087 ft | 436 kts | 217° |
| 2026-04-23 20:01 | 24.25612 | -16.84232 | 37086 ft | 436 kts | 217° |
| 2026-04-23 20:02 | 24.20393 | -16.87600 | 37084 ft | 436 kts | 217° |
| 2026-04-23 20:02 | 24.15157 | -16.90976 | 37087 ft | 436 kts | 217° |
| 2026-04-23 20:03 | 24.09928 | -16.94344 | 37088 ft | 436 kts | 217° |
| 2026-04-23 20:03 | 24.04693 | -16.97713 | 37078 ft | 436 kts | 217° |
| 2026-04-23 20:04 | 23.99479 | -17.01063 | 37078 ft | 435 kts | 217° |
| 2026-04-23 20:04 | 23.94257 | -17.04418 | 37082 ft | 435 kts | 217° |
| 2026-04-23 20:05 | 23.89914 | -17.07206 | 37082 ft | 435 kts | 217° |
| 2026-04-23 20:05 | 23.83832 | -17.11105 | 37087 ft | 436 kts | 217° |
| 2026-04-23 20:06 | 23.78605 | -17.14453 | 37089 ft | 436 kts | 217° |
| 2026-04-23 20:06 | 23.73366 | -17.17804 | 37088 ft | 436 kts | 217° |
| 2026-04-23 20:07 | 23.68136 | -17.21148 | 37087 ft | 436 kts | 217° |
| 2026-04-23 20:07 | 23.63777 | -17.23932 | 37087 ft | 436 kts | 217° |
| 2026-04-23 20:08 | 23.58537 | -17.27276 | 37086 ft | 436 kts | 217° |
| 2026-04-23 20:08 | 23.53329 | -17.30596 | 37089 ft | 436 kts | 217° |
| 2026-04-23 20:09 | 23.48091 | -17.33933 | 37084 ft | 436 kts | 217° |
| 2026-04-23 20:09 | 23.42855 | -17.37265 | 37083 ft | 436 kts | 217° |
| 2026-04-23 20:10 | 23.37607 | -17.40599 | 37054 ft | 436 kts | 217° |
| 2026-04-23 20:10 | 23.32366 | -17.43927 | 37074 ft | 436 kts | 217° |
| 2026-04-23 20:11 | 23.27114 | -17.47261 | 37083 ft | 436 kts | 217° |
| 2026-04-23 20:11 | 23.21903 | -17.50566 | 37093 ft | 436 kts | 217° |
| 2026-04-23 20:12 | 23.16661 | -17.53887 | 37084 ft | 436 kts | 217° |
| 2026-04-23 20:12 | 23.11412 | -17.57209 | 37084 ft | 436 kts | 217° |
| 2026-04-23 20:13 | 23.06160 | -17.60530 | 37067 ft | 436 kts | 217° |
| 2026-04-23 20:13 | 23.00948 | -17.63817 | 37077 ft | 435 kts | 218° |
| 2026-04-23 20:14 | 22.95724 | -17.67116 | 37083 ft | 435 kts | 218° |
| 2026-04-23 20:14 | 22.90490 | -17.70418 | 37083 ft | 434 kts | 217° |
| 2026-04-23 20:15 | 22.85261 | -17.73713 | 37079 ft | 434 kts | 217° |
| 2026-04-23 20:15 | 22.80021 | -17.77012 | 37080 ft | 435 kts | 217° |
| 2026-04-23 20:16 | 22.74769 | -17.80315 | 37081 ft | 436 kts | 217° |
| 2026-04-23 20:16 | 22.69556 | -17.83586 | 37068 ft | 435 kts | 218° |
| 2026-04-23 20:17 | 22.64324 | -17.86870 | 37080 ft | 434 kts | 218° |
| 2026-04-23 20:17 | 22.59087 | -17.90157 | 37080 ft | 434 kts | 218° |
| 2026-04-23 20:18 | 22.53856 | -17.93435 | 37082 ft | 434 kts | 218° |
| 2026-04-23 20:18 | 22.48618 | -17.96715 | 37080 ft | 435 kts | 218° |
| 2026-04-23 20:19 | 22.43371 | -17.99997 | 37077 ft | 435 kts | 218° |
| 2026-04-23 20:19 | 22.38170 | -18.03247 | 37058 ft | 434 kts | 218° |
| 2026-04-23 20:20 | 22.32929 | -18.06518 | 37078 ft | 434 kts | 218° |
| 2026-04-23 20:20 | 22.27702 | -18.09779 | 37070 ft | 434 kts | 218° |
| 2026-04-23 20:21 | 22.22465 | -18.13044 | 37079 ft | 434 kts | 218° |
| 2026-04-23 20:21 | 22.17224 | -18.16309 | 37080 ft | 434 kts | 218° |
| 2026-04-23 20:22 | 22.11992 | -18.19565 | 37078 ft | 434 kts | 218° |
| 2026-04-23 20:22 | 22.06745 | -18.22827 | 37080 ft | 434 kts | 218° |
| 2026-04-23 20:23 | 22.01508 | -18.26079 | 37070 ft | 434 kts | 218° |
| 2026-04-23 20:23 | 21.96304 | -18.29309 | 37078 ft | 434 kts | 218° |
| 2026-04-23 20:24 | 21.91070 | -18.32555 | 37077 ft | 434 kts | 218° |
| 2026-04-23 20:24 | 21.85835 | -18.35799 | 37079 ft | 434 kts | 218° |
| 2026-04-23 20:25 | 21.80601 | -18.39039 | 37076 ft | 434 kts | 218° |
| 2026-04-23 20:25 | 21.75394 | -18.42259 | 37078 ft | 434 kts | 218° |
| 2026-04-23 20:26 | 21.70153 | -18.45499 | 37048 ft | 434 kts | 218° |
| 2026-04-23 20:26 | 21.64904 | -18.48740 | 37068 ft | 435 kts | 218° |
| 2026-04-23 20:27 | 21.59690 | -18.51956 | 37089 ft | 435 kts | 218° |
| 2026-04-23 20:27 | 21.54436 | -18.55195 | 37073 ft | 434 kts | 218° |
| 2026-04-23 20:28 | 21.49188 | -18.58427 | 37071 ft | 434 kts | 218° |
| 2026-04-23 20:28 | 21.43931 | -18.61662 | 37072 ft | 435 kts | 218° |
| 2026-04-23 20:29 | 21.38699 | -18.64879 | 37059 ft | 435 kts | 218° |
| 2026-04-23 20:29 | 21.33437 | -18.68113 | 37062 ft | 435 kts | 218° |
| 2026-04-23 20:30 | 21.28213 | -18.71319 | 37075 ft | 435 kts | 218° |
| 2026-04-23 20:30 | 21.20328 | -18.76153 | 37075 ft | 435 kts | 218° |
| 2026-04-23 20:31 | 21.15072 | -18.79372 | 37076 ft | 435 kts | 218° |
| 2026-04-23 20:31 | 21.09806 | -18.82595 | 37072 ft | 435 kts | 218° |
| 2026-04-23 20:32 | 21.04547 | -18.85810 | 37040 ft | 435 kts | 218° |
| 2026-04-23 20:32 | 20.99293 | -18.89022 | 37065 ft | 435 kts | 217° |
| 2026-04-23 20:33 | 20.94067 | -18.92211 | 37071 ft | 435 kts | 217° |
| 2026-04-23 20:33 | 20.88799 | -18.95424 | 37072 ft | 435 kts | 217° |
| 2026-04-23 20:34 | 20.83545 | -18.98626 | 37072 ft | 435 kts | 217° |
| 2026-04-23 20:34 | 20.78279 | -19.01832 | 37072 ft | 435 kts | 217° |
| 2026-04-23 20:35 | 20.73017 | -19.05034 | 37072 ft | 435 kts | 217° |
| 2026-04-23 20:35 | 20.67750 | -19.08240 | 37050 ft | 436 kts | 217° |
| 2026-04-23 20:36 | 20.62474 | -19.11445 | 37079 ft | 436 kts | 217° |
| 2026-04-23 20:36 | 20.57192 | -19.14649 | 37072 ft | 437 kts | 217° |
| 2026-04-23 20:37 | 20.51909 | -19.17854 | 37073 ft | 437 kts | 217° |
| 2026-04-23 20:37 | 20.46615 | -19.21061 | 37073 ft | 437 kts | 217° |
| 2026-04-23 20:38 | 20.41326 | -19.24264 | 37072 ft | 437 kts | 217° |
| 2026-04-23 20:38 | 20.36033 | -19.27466 | 37072 ft | 437 kts | 217° |
| 2026-04-23 20:39 | 20.30773 | -19.30647 | 37072 ft | 437 kts | 217° |
| 2026-04-23 20:39 | 20.25473 | -19.33849 | 37072 ft | 437 kts | 217° |
| 2026-04-23 20:40 | 20.20165 | -19.37053 | 37073 ft | 437 kts | 217° |
| 2026-04-23 20:40 | 20.14877 | -19.40242 | 37072 ft | 437 kts | 217° |
| 2026-04-23 20:41 | 20.09574 | -19.43438 | 37073 ft | 437 kts | 217° |
| 2026-04-23 20:41 | 20.04314 | -19.46606 | 37070 ft | 437 kts | 217° |
| 2026-04-23 20:42 | 19.99009 | -19.49803 | 37056 ft | 439 kts | 217° |
| 2026-04-23 20:42 | 19.93672 | -19.53010 | 37067 ft | 439 kts | 217° |
| 2026-04-23 20:43 | 19.88351 | -19.56205 | 37069 ft | 439 kts | 217° |
| 2026-04-23 20:43 | 19.83025 | -19.59402 | 37068 ft | 439 kts | 217° |
| 2026-04-23 20:44 | 19.77736 | -19.62575 | 37068 ft | 439 kts | 217° |
| 2026-04-23 20:44 | 19.72411 | -19.65767 | 37065 ft | 439 kts | 217° |
| 2026-04-23 20:45 | 19.67094 | -19.68969 | 37046 ft | 438 kts | 218° |
| 2026-04-23 20:45 | 19.62022 | -19.72513 | 37068 ft | 435 kts | 223° |
| 2026-04-23 20:46 | 19.57332 | -19.76522 | 37066 ft | 430 kts | 227° |
| 2026-04-23 20:46 | 19.53064 | -19.80946 | 37063 ft | 427 kts | 232° |
| 2026-04-23 20:47 | 19.49026 | -19.85588 | 37068 ft | 428 kts | 232° |
| 2026-04-23 20:47 | 19.45011 | -19.90202 | 37068 ft | 428 kts | 232° |
| 2026-04-23 20:48 | 19.40971 | -19.94848 | 37068 ft | 428 kts | 232° |
| 2026-04-23 20:48 | 19.36931 | -19.99492 | 37069 ft | 428 kts | 232° |
| 2026-04-23 20:49 | 19.32890 | -20.04136 | 37070 ft | 428 kts | 232° |
| 2026-04-23 20:49 | 19.28846 | -20.08783 | 37062 ft | 430 kts | 232° |
| 2026-04-23 20:50 | 19.24775 | -20.13452 | 37068 ft | 430 kts | 232° |
| 2026-04-23 20:50 | 19.20704 | -20.18119 | 37064 ft | 432 kts | 232° |
| 2026-04-23 20:51 | 19.16643 | -20.22771 | 37068 ft | 432 kts | 232° |
| 2026-04-23 20:51 | 19.12558 | -20.27445 | 37069 ft | 432 kts | 232° |
| 2026-04-23 20:52 | 19.08475 | -20.32115 | 37072 ft | 432 kts | 232° |
| 2026-04-23 20:52 | 19.04386 | -20.36788 | 37073 ft | 432 kts | 232° |
| 2026-04-23 20:53 | 19.00297 | -20.41457 | 37070 ft | 432 kts | 232° |
| 2026-04-23 20:53 | 18.96232 | -20.46096 | 37069 ft | 432 kts | 232° |
| 2026-04-23 20:54 | 18.92132 | -20.50773 | 37064 ft | 434 kts | 232° |
| 2026-04-23 20:54 | 18.88014 | -20.55464 | 37068 ft | 435 kts | 232° |
| 2026-04-23 20:55 | 18.83887 | -20.60162 | 37069 ft | 435 kts | 232° |
| 2026-04-23 20:55 | 18.79768 | -20.64847 | 37069 ft | 435 kts | 232° |
| 2026-04-23 20:56 | 18.76347 | -20.68735 | 37073 ft | 435 kts | 232° |
| 2026-04-23 20:56 | 18.72222 | -20.73421 | 37069 ft | 435 kts | 232° |
| 2026-04-23 20:57 | 18.68096 | -20.78104 | 37072 ft | 435 kts | 232° |
| 2026-04-23 20:57 | 18.63968 | -20.82786 | 37068 ft | 435 kts | 232° |
| 2026-04-23 20:58 | 18.59860 | -20.87441 | 37072 ft | 436 kts | 232° |
| 2026-04-23 20:58 | 18.55723 | -20.92128 | 37071 ft | 437 kts | 231° |
| 2026-04-23 20:59 | 18.51574 | -20.96822 | 37065 ft | 437 kts | 231° |
| 2026-04-23 20:59 | 18.47418 | -21.01521 | 37062 ft | 437 kts | 231° |
| 2026-04-23 21:00 | 18.43265 | -21.06213 | 37073 ft | 437 kts | 231° |
| 2026-04-23 21:00 | 18.39114 | -21.10900 | 37065 ft | 437 kts | 231° |
| 2026-04-23 21:01 | 18.34958 | -21.15588 | 37060 ft | 437 kts | 231° |
| 2026-04-23 21:01 | 18.30824 | -21.20247 | 37064 ft | 437 kts | 231° |
| 2026-04-23 21:02 | 18.26668 | -21.24930 | 37073 ft | 437 kts | 231° |
| 2026-04-23 21:02 | 18.22512 | -21.29607 | 37055 ft | 437 kts | 231° |
| 2026-04-23 21:03 | 18.18346 | -21.34294 | 37066 ft | 439 kts | 231° |
| 2026-04-23 21:03 | 18.16256 | -21.36644 | 36951 ft | 440 kts | 231° |
| 2026-04-23 21:03 | 18.14168 | -21.38990 | 36689 ft | 438 kts | 231° |
| 2026-04-23 21:04 | 18.12110 | -21.41299 | 36444 ft | 436 kts | 232° |
| 2026-04-23 21:04 | 18.10009 | -21.43656 | 36198 ft | 434 kts | 232° |
| 2026-04-23 21:04 | 18.07977 | -21.45936 | 35954 ft | 432 kts | 232° |
| 2026-04-23 21:04 | 18.05919 | -21.48245 | 35714 ft | 433 kts | 232° |
| 2026-04-23 21:05 | 18.03853 | -21.50562 | 35473 ft | 434 kts | 232° |
| 2026-04-23 21:05 | 18.01783 | -21.52884 | 35230 ft | 435 kts | 232° |
| 2026-04-23 21:05 | 17.99717 | -21.55202 | 35014 ft | 436 kts | 232° |
| 2026-04-23 21:05 | 17.97637 | -21.57533 | 34787 ft | 437 kts | 232° |
| 2026-04-23 21:06 | 17.95551 | -21.59869 | 34549 ft | 438 kts | 232° |
| 2026-04-23 21:06 | 17.93465 | -21.62205 | 34320 ft | 439 kts | 232° |
| 2026-04-23 21:06 | 17.91366 | -21.64554 | 34097 ft | 440 kts | 232° |
| 2026-04-23 21:06 | 17.89263 | -21.66907 | 33829 ft | 442 kts | 232° |
| 2026-04-23 21:07 | 17.87156 | -21.69265 | 33452 ft | 443 kts | 232° |
| 2026-04-23 21:07 | 17.85046 | -21.71625 | 32968 ft | 444 kts | 232° |
| 2026-04-23 21:07 | 17.82925 | -21.73999 | 32384 ft | 445 kts | 232° |
| 2026-04-23 21:07 | 17.80804 | -21.76369 | 31746 ft | 446 kts | 232° |
| 2026-04-23 21:08 | 17.78703 | -21.78715 | 31135 ft | 446 kts | 231° |
| 2026-04-23 21:08 | 17.76572 | -21.81093 | 30509 ft | 447 kts | 231° |
| 2026-04-23 21:08 | 17.74441 | -21.83471 | 29825 ft | 448 kts | 231° |
| 2026-04-23 21:08 | 17.72295 | -21.85864 | 29092 ft | 449 kts | 231° |
| 2026-04-23 21:09 | 17.70147 | -21.88260 | 28355 ft | 450 kts | 231° |
| 2026-04-23 21:09 | 17.67995 | -21.90658 | 27623 ft | 451 kts | 231° |
| 2026-04-23 21:09 | 17.65851 | -21.93051 | 27170 ft | 446 kts | 231° |
| 2026-04-23 21:09 | 17.63814 | -21.95486 | 26685 ft | 440 kts | 233° |
| 2026-04-23 21:10 | 17.61806 | -21.97974 | 26197 ft | 437 kts | 233° |
| 2026-04-23 21:10 | 17.59808 | -22.00455 | 25693 ft | 434 kts | 233° |
| 2026-04-23 21:10 | 17.57864 | -22.02870 | 25221 ft | 431 kts | 233° |
| 2026-04-23 21:10 | 17.55902 | -22.05307 | 24695 ft | 430 kts | 233° |
| 2026-04-23 21:11 | 17.53998 | -22.07672 | 24218 ft | 428 kts | 233° |
| 2026-04-23 21:11 | 17.52082 | -22.10050 | 23740 ft | 426 kts | 233° |
| 2026-04-23 21:11 | 17.50171 | -22.12421 | 23161 ft | 425 kts | 233° |
| 2026-04-23 21:11 | 17.48266 | -22.14783 | 22669 ft | 421 kts | 232° |
| 2026-04-23 21:12 | 17.46358 | -22.17146 | 22175 ft | 417 kts | 232° |
| 2026-04-23 21:12 | 17.44449 | -22.19511 | 21703 ft | 413 kts | 232° |
| 2026-04-23 21:12 | 17.42598 | -22.21803 | 21256 ft | 410 kts | 232° |
| 2026-04-23 21:12 | 17.40771 | -22.24065 | 20820 ft | 406 kts | 232° |
| 2026-04-23 21:13 | 17.38939 | -22.26333 | 20381 ft | 403 kts | 232° |
| 2026-04-23 21:13 | 17.37126 | -22.28575 | 19954 ft | 400 kts | 232° |
| 2026-04-23 21:13 | 17.35351 | -22.30772 | 19527 ft | 397 kts | 232° |
| 2026-04-23 21:13 | 17.33574 | -22.32968 | 19091 ft | 395 kts | 231° |
| 2026-04-23 21:14 | 17.31797 | -22.35165 | 18669 ft | 393 kts | 231° |
| 2026-04-23 21:14 | 17.30036 | -22.37340 | 18211 ft | 391 kts | 231° |
| 2026-04-23 21:14 | 17.28271 | -22.39518 | 17721 ft | 388 kts | 231° |
| 2026-04-23 21:14 | 17.26545 | -22.41649 | 17284 ft | 385 kts | 231° |
| 2026-04-23 21:15 | 17.24824 | -22.43771 | 16866 ft | 382 kts | 231° |
| 2026-04-23 21:15 | 17.23073 | -22.45878 | 16395 ft | 380 kts | 227° |
| 2026-04-23 21:15 | 17.20900 | -22.47500 | 15859 ft | 384 kts | 211° |
| 2026-04-23 21:15 | 17.18536 | -22.48782 | 15286 ft | 386 kts | 209° |
| 2026-04-23 21:16 | 17.16135 | -22.50040 | 14682 ft | 388 kts | 209° |
| 2026-04-23 21:16 | 17.13726 | -22.51328 | 14063 ft | 388 kts | 210° |
| 2026-04-23 21:16 | 17.11320 | -22.52640 | 13501 ft | 386 kts | 210° |
| 2026-04-23 21:16 | 17.08975 | -22.53936 | 12980 ft | 382 kts | 210° |
| 2026-04-23 21:17 | 17.06633 | -22.55243 | 12468 ft | 378 kts | 210° |
| 2026-04-23 21:17 | 17.04321 | -22.56538 | 11926 ft | 375 kts | 210° |
| 2026-04-23 21:17 | 17.02036 | -22.57819 | 11444 ft | 371 kts | 210° |
| 2026-04-23 21:17 | 16.99791 | -22.59081 | 11045 ft | 364 kts | 210° |
| 2026-04-23 21:18 | 16.97579 | -22.60324 | 10739 ft | 356 kts | 210° |
| 2026-04-23 21:18 | 16.95422 | -22.61535 | 10553 ft | 343 kts | 210° |
| 2026-04-23 21:18 | 16.93360 | -22.62693 | 10444 ft | 330 kts | 210° |
| 2026-04-23 21:18 | 16.91377 | -22.63808 | 10335 ft | 317 kts | 210° |
| 2026-04-23 21:19 | 16.89499 | -22.64864 | 10238 ft | 304 kts | 211° |
| 2026-04-23 21:19 | 16.87660 | -22.65899 | 10139 ft | 292 kts | 211° |
| 2026-04-23 21:19 | 16.85898 | -22.66889 | 9990 ft | 283 kts | 211° |
| 2026-04-23 21:19 | 16.84189 | -22.67854 | 9599 ft | 282 kts | 211° |
| 2026-04-23 21:20 | 16.82455 | -22.68831 | 9245 ft | 280 kts | 211° |
| 2026-04-23 21:20 | 16.80761 | -22.69783 | 8921 ft | 277 kts | 211° |
| 2026-04-23 21:20 | 16.79057 | -22.70740 | 8599 ft | 275 kts | 211° |
| 2026-04-23 21:20 | 16.77376 | -22.71686 | 8285 ft | 273 kts | 211° |
| 2026-04-23 21:21 | 16.75641 | -22.72667 | 7954 ft | 292 kts | 211° |
| 2026-04-23 21:21 | 16.73853 | -22.73675 | 7626 ft | 296 kts | 211° |
| 2026-04-23 21:21 | 16.72025 | -22.74697 | 7275 ft | 297 kts | 211° |
| 2026-04-23 21:21 | 16.70222 | -22.75705 | 6987 ft | 295 kts | 212° |
| 2026-04-23 21:22 | 16.68397 | -22.76735 | 6650 ft | 296 kts | 211° |
| 2026-04-23 21:22 | 16.66596 | -22.77748 | 6320 ft | 295 kts | 211° |
| 2026-04-23 21:22 | 16.64795 | -22.78759 | 5991 ft | 294 kts | 211° |
| 2026-04-23 21:22 | 16.63000 | -22.79764 | 5630 ft | 289 kts | 212° |
| 2026-04-23 21:23 | 16.61257 | -22.80736 | 5332 ft | 281 kts | 212° |
| 2026-04-23 21:23 | 16.59547 | -22.81696 | 5038 ft | 275 kts | 212° |
| 2026-04-23 21:23 | 16.57857 | -22.82649 | 4744 ft | 275 kts | 211° |
| 2026-04-23 21:23 | 16.56183 | -22.83596 | 4546 ft | 276 kts | 214° |
| 2026-04-23 21:24 | 16.54838 | -22.84937 | 4409 ft | 270 kts | 246° |
| 2026-04-23 21:24 | 16.54400 | -22.86801 | 4119 ft | 266 kts | 272° |
| 2026-04-23 21:24 | 16.54481 | -22.88739 | 3787 ft | 268 kts | 276° |
| 2026-04-23 21:24 | 16.54605 | -22.90695 | 3496 ft | 269 kts | 276° |
| 2026-04-23 21:25 | 16.54680 | -22.92623 | 3206 ft | 264 kts | 278° |
| 2026-04-23 21:25 | 16.55261 | -22.94351 | 2897 ft | 245 kts | 315° |
| 2026-04-23 21:25 | 16.56627 | -22.95223 | 2848 ft | 232 kts | 354° |
| 2026-04-23 21:25 | 16.58198 | -22.95229 | 2778 ft | 217 kts | 8° |
| 2026-04-23 21:26 | 16.59632 | -22.95066 | 2654 ft | 197 kts | 8° |
| 2026-04-23 21:26 | 16.60973 | -22.94948 | 2421 ft | 195 kts | 6° |
| 2026-04-23 21:26 | 16.62296 | -22.94890 | 2173 ft | 182 kts | 5° |
| 2026-04-23 21:26 | 16.63518 | -22.94866 | 1891 ft | 168 kts | 4° |
| 2026-04-23 21:27 | 16.64628 | -22.94858 | 1679 ft | 152 kts | 4° |
| 2026-04-23 21:27 | 16.65658 | -22.94840 | 1471 ft | 147 kts | 5° |
| 2026-04-23 21:27 | 16.66686 | -22.94843 | 1250 ft | 146 kts | 2° |
| 2026-04-23 21:27 | 16.67694 | -22.94870 | 1086 ft | 144 kts | 4° |
| 2026-04-23 21:28 | 16.68698 | -22.94869 | 964 ft | 144 kts | 3° |
| 2026-04-23 21:28 | 16.69705 | -22.94887 | 812 ft | 145 kts | 1° |
| 2026-04-23 21:28 | 16.70710 | -22.94891 | 618 ft | 145 kts | 5° |
| 2026-04-23 21:28 | 16.71699 | -22.94895 | 352 ft | 143 kts | 4° |
| 2026-04-23 21:29 | 16.72689 | -22.94882 | 192 ft | 138 kts | 2° |
| 2026-04-23 21:29 | 16.73484 | -22.94894 | 188 ft | 98 kts | 360° |
| 2026-04-23 21:29 | 16.74124 | -22.94898 | 183 ft | 86 kts | 359° |
| 2026-04-23 21:29 | 16.74688 | -22.94903 | 186 ft | 76 kts | 0° |
| 2026-04-23 21:30 | 16.75048 | -22.94879 | 181 ft | 26 kts | 51° |
| 2026-04-23 21:30 | 16.75004 | -22.94759 | 183 ft | 12 kts | 123° |
| 2026-04-23 21:30 | 16.74942 | -22.94711 | 186 ft | 0 kts | 170° |